Time;durP1;ratioP1;P1;durP2;ratioP2;P2;SDS_P1;SDS_P2;PMS_P1;PMS_P2;Temp;Humidity;BMP_temperature;BMP_pressure;BME280_temperature;BME280_humidity;BME280_pressure;Samples;Min_cycle;Max_cycle;Signal;HPM_P1;HPM_P2
2023/08/19 00:02:28;;;;;;;23.83;17.10;;;;;;;;;;10498984;28;20028;-89
2023/08/19 00:07:29;;;;;;;21.80;17.55;;;;;;;;;;10508979;28;20123;-89
2023/08/19 00:12:30;;;;;;;21.17;16.50;;;;;;;;;;10410219;28;20054;-89
2023/08/19 00:17:31;;;;;;;23.58;17.73;;;;;;;;;;10506014;28;20032;-88
2023/08/19 00:22:32;;;;;;;21.10;15.90;;;;;;;;;;10458270;28;20058;-89
2023/08/19 00:27:33;;;;;;;22.58;17.92;;;;;;;;;;10451146;28;20069;-88
2023/08/19 00:32:34;;;;;;;19.67;16.13;;;;;;;;;;10506357;28;20035;-88
2023/08/19 00:37:36;;;;;;;20.58;17.35;;;;;;;;;;10507779;28;20115;-88
2023/08/19 00:42:37;;;;;;;22.40;17.08;;;;;;;;;;10428413;28;20094;-90
2023/08/19 00:47:38;;;;;;;20.52;17.27;;;;;;;;;;10484879;28;20027;-88
2023/08/19 00:52:40;;;;;;;23.17;17.05;;;;;;;;;;10496389;28;20111;-88
2023/08/19 00:57:42;;;;;;;22.00;17.75;;;;;;;;;;10487885;28;20093;-88
2023/08/19 01:02:43;;;;;;;24.08;16.50;;;;;;;;;;10380433;28;20729;-88
2023/08/19 01:07:53;;;;;;;23.70;17.73;;;;;;;;;;10513810;28;20036;-88
2023/08/19 01:12:57;;;;;;;23.25;18.42;;;;;;;;;;10469341;28;20089;-89
2023/08/19 01:17:58;;;;;;;21.88;17.40;;;;;;;;;;10487399;28;20040;-89
2023/08/19 01:23:04;;;;;;;19.85;16.33;;;;;;;;;;10480222;28;20490;-87
2023/08/19 01:28:05;;;;;;;27.48;19.98;;;;;;;;;;10485322;28;20678;-87
2023/08/19 01:33:06;;;;;;;26.77;20.23;;;;;;;;;;10505784;28;20398;-87
2023/08/19 01:38:29;;;;;;;27.27;20.13;;;;;;;;;;10531483;28;20036;-89
2023/08/19 01:43:31;;;;;;;31.33;21.30;;;;;;;;;;10474672;28;20044;-88
2023/08/19 01:48:32;;;;;;;29.25;21.25;;;;;;;;;;10376011;28;20069;-87
2023/08/19 01:53:33;;;;;;;31.35;22.17;;;;;;;;;;10491858;28;20046;-87
2023/08/19 01:58:34;;;;;;;29.85;20.90;;;;;;;;;;10493260;28;20115;-87
2023/08/19 02:03:35;;;;;;;30.70;22.77;;;;;;;;;;10501112;28;20040;-88
2023/08/19 02:08:36;;;;;;;31.33;20.98;;;;;;;;;;10501152;28;20272;-88
2023/08/19 02:13:37;;;;;;;25.45;20.63;;;;;;;;;;10503261;28;20034;-89
2023/08/19 02:18:38;;;;;;;29.75;22.92;;;;;;;;;;10499741;28;20100;-89
2023/08/19 02:23:39;;;;;;;32.13;22.55;;;;;;;;;;10517654;28;20033;-86
2023/08/19 02:28:40;;;;;;;29.00;21.80;;;;;;;;;;10443526;28;20817;-88
2023/08/19 02:33:41;;;;;;;30.02;22.05;;;;;;;;;;10487674;28;20101;-89
2023/08/19 02:38:42;;;;;;;24.67;19.65;;;;;;;;;;10510058;28;20092;-89
2023/08/19 02:43:43;;;;;;;40.95;25.90;;;;;;;;;;10494360;28;20139;-88
2023/08/19 02:48:45;;;;;;;48.55;29.88;;;;;;;;;;10475020;28;20048;-90
2023/08/19 02:53:46;;;;;;;37.17;27.50;;;;;;;;;;10500578;28;20503;-88
2023/08/19 02:58:47;;;;;;;43.65;30.73;;;;;;;;;;10488577;28;20391;-87
2023/08/19 03:03:48;;;;;;;31.73;25.98;;;;;;;;;;10458074;28;20576;-88
2023/08/19 03:08:49;;;;;;;37.83;25.55;;;;;;;;;;10429252;28;20056;-88
2023/08/19 03:13:50;;;;;;;41.72;28.70;;;;;;;;;;10511469;28;20394;-89
2023/08/19 03:18:51;;;;;;;28.08;21.05;;;;;;;;;;10510830;28;20035;-90
2023/08/19 03:23:52;;;;;;;24.85;20.10;;;;;;;;;;10515661;28;20060;-88
2023/08/19 03:28:53;;;;;;;24.80;18.00;;;;;;;;;;10543194;28;20406;-89
2023/08/19 03:33:54;;;;;;;21.63;17.88;;;;;;;;;;10485227;28;20122;-88
2023/08/19 03:38:56;;;;;;;26.65;20.40;;;;;;;;;;10503373;28;20028;-89
2023/08/19 03:43:57;;;;;;;26.92;20.55;;;;;;;;;;10508228;28;20044;-89
2023/08/19 03:48:58;;;;;;;31.33;22.40;;;;;;;;;;10503273;28;20020;-84
2023/08/19 03:53:59;;;;;;;30.23;22.23;;;;;;;;;;10513167;28;20024;-89
2023/08/19 03:59:00;;;;;;;27.85;20.88;;;;;;;;;;10517100;28;20036;-86
2023/08/19 04:04:01;;;;;;;27.95;19.85;;;;;;;;;;10498210;28;20040;-87
2023/08/19 04:09:02;;;;;;;35.80;24.38;;;;;;;;;;10514737;28;20761;-88
2023/08/19 04:14:05;;;;;;;33.53;23.58;;;;;;;;;;10514737;28;20094;-88
2023/08/19 04:19:06;;;;;;;35.13;24.27;;;;;;;;;;10495906;28;20035;-90
2023/08/19 04:24:08;;;;;;;34.85;25.05;;;;;;;;;;10490230;28;20044;-86
2023/08/19 04:29:09;;;;;;;32.90;23.08;;;;;;;;;;10517438;28;20034;-86
2023/08/19 04:34:10;;;;;;;29.67;22.27;;;;;;;;;;10504157;28;20746;-86
2023/08/19 04:39:11;;;;;;;30.33;22.70;;;;;;;;;;10523382;28;20028;-87
2023/08/19 04:44:12;;;;;;;30.27;23.10;;;;;;;;;;10534175;28;20040;-86
2023/08/19 04:49:13;;;;;;;30.95;23.20;;;;;;;;;;10527904;28;20384;-88
2023/08/19 04:54:14;;;;;;;32.35;24.05;;;;;;;;;;10498104;28;20020;-88
2023/08/19 04:59:15;;;;;;;32.03;25.77;;;;;;;;;;10511629;28;20031;-88
2023/08/19 05:04:16;;;;;;;33.80;26.63;;;;;;;;;;10516083;28;20040;-89
2023/08/19 05:09:17;;;;;;;36.35;28.98;;;;;;;;;;10503052;28;20052;-88
2023/08/19 05:14:18;;;;;;;31.77;24.85;;;;;;;;;;10506134;28;20540;-88
2023/08/19 05:19:20;;;;;;;31.52;24.67;;;;;;;;;;10514534;28;20035;-89
2023/08/19 05:24:21;;;;;;;34.92;26.80;;;;;;;;;;10522838;28;20032;-89
2023/08/19 05:29:23;;;;;;;36.67;27.38;;;;;;;;;;10493524;28;20016;-90
2023/08/19 05:34:25;;;;;;;32.38;25.65;;;;;;;;;;10514928;28;20036;-88
2023/08/19 05:39:26;;;;;;;36.70;26.10;;;;;;;;;;10494793;28;20047;-86
2023/08/19 05:44:41;;;;;;;34.15;25.65;;;;;;;;;;10496058;28;20086;-93
2023/08/19 05:49:42;;;;;;;31.37;24.73;;;;;;;;;;10493826;28;20064;-84
2023/08/19 05:54:43;;;;;;;29.55;22.73;;;;;;;;;;10485385;28;20293;-87
2023/08/19 05:59:44;;;;;;;28.33;21.42;;;;;;;;;;10502390;28;20024;-88
2023/08/19 06:04:45;;;;;;;29.02;23.23;;;;;;;;;;10501059;28;20051;-91
2023/08/19 06:09:46;;;;;;;33.85;23.85;;;;;;;;;;10512638;28;20144;-89
2023/08/19 06:14:47;;;;;;;30.23;21.77;;;;;;;;;;10499937;28;20035;-88
2023/08/19 06:19:48;;;;;;;27.92;20.17;;;;;;;;;;10503572;28;20707;-88
2023/08/19 06:24:49;;;;;;;25.50;19.00;;;;;;;;;;10497058;28;20060;-88
2023/08/19 06:29:50;;;;;;;29.27;23.20;;;;;;;;;;10506594;28;20050;-87
2023/08/19 06:34:51;;;;;;;30.27;23.27;;;;;;;;;;10536586;28;20024;-86
2023/08/19 06:39:55;;;;;;;28.65;20.00;;;;;;;;;;10535169;28;20032;-86
2023/08/19 06:44:59;;;;;;;22.10;17.80;;;;;;;;;;10496317;28;20748;-85
2023/08/19 06:50:00;;;;;;;21.43;16.90;;;;;;;;;;10523538;28;20380;-85
2023/08/19 06:55:01;;;;;;;21.88;16.85;;;;;;;;;;10505393;28;20490;-87
2023/08/19 07:00:09;;;;;;;22.42;16.98;;;;;;;;;;10503380;28;20434;-88
2023/08/19 07:05:15;;;;;;;23.55;17.40;;;;;;;;;;10522197;28;20036;-88
2023/08/19 07:10:17;;;;;;;22.83;16.25;;;;;;;;;;10497045;28;20060;-86
2023/08/19 07:15:19;;;;;;;21.15;16.55;;;;;;;;;;10491759;28;20213;-87
2023/08/19 07:20:23;;;;;;;23.10;18.25;;;;;;;;;;10510284;28;20032;-85
2023/08/19 07:25:28;;;;;;;25.90;18.63;;;;;;;;;;10505031;28;20167;-85
2023/08/19 07:30:29;;;;;;;21.80;18.35;;;;;;;;;;10513589;28;20670;-86
2023/08/19 07:35:30;;;;;;;22.45;16.27;;;;;;;;;;10504419;28;20035;-86
2023/08/19 07:40:31;;;;;;;20.95;15.60;;;;;;;;;;10516447;28;20052;-86
2023/08/19 07:45:32;;;;;;;19.50;13.90;;;;;;;;;;10499648;28;20056;-88
2023/08/19 07:50:34;;;;;;;16.95;14.48;;;;;;;;;;10499896;28;20035;-88
2023/08/19 07:55:35;;;;;;;16.30;13.35;;;;;;;;;;10500063;28;20016;-88
2023/08/19 08:00:36;;;;;;;16.67;14.10;;;;;;;;;;10508797;28;20036;-89
2023/08/19 08:05:37;;;;;;;21.00;15.77;;;;;;;;;;10518544;28;20095;-89
2023/08/19 08:10:39;;;;;;;17.30;14.27;;;;;;;;;;10506507;28;20051;-88
2023/08/19 08:15:40;;;;;;;16.15;13.43;;;;;;;;;;10514084;28;20037;-86
2023/08/19 08:20:41;;;;;;;17.00;13.15;;;;;;;;;;10494763;28;20040;-87
2023/08/19 08:25:42;;;;;;;16.33;13.45;;;;;;;;;;10499578;28;20129;-88
2023/08/19 08:30:44;;;;;;;14.43;12.18;;;;;;;;;;10493905;28;20193;-89
2023/08/19 08:35:45;;;;;;;15.20;12.43;;;;;;;;;;10492472;28;20036;-89
2023/08/19 08:40:46;;;;;;;17.25;11.98;;;;;;;;;;10486890;28;20155;-89
2023/08/19 08:45:48;;;;;;;11.18;9.93;;;;;;;;;;10496443;28;20127;-92
2023/08/19 08:50:49;;;;;;;9.23;8.25;;;;;;;;;;10523596;28;20463;-90
2023/08/19 08:55:52;;;;;;;10.30;8.98;;;;;;;;;;10505260;28;20082;-88
2023/08/19 09:00:54;;;;;;;11.63;10.38;;;;;;;;;;10487423;28;20028;-90
2023/08/19 09:05:58;;;;;;;11.15;9.57;;;;;;;;;;10500065;28;20101;-90
2023/08/19 09:11:07;;;;;;;10.85;9.18;;;;;;;;;;10495198;28;20055;-88
2023/08/19 09:16:11;;;;;;;11.30;9.10;;;;;;;;;;10502561;28;20031;-88
2023/08/19 09:21:12;;;;;;;13.32;9.25;;;;;;;;;;10499728;28;20020;-88
2023/08/19 09:26:13;;;;;;;13.25;9.60;;;;;;;;;;10498379;28;20040;-87
2023/08/19 09:31:18;;;;;;;12.15;9.52;;;;;;;;;;10512007;28;20090;-89
2023/08/19 09:36:23;;;;;;;12.27;10.40;;;;;;;;;;10503258;28;20030;-90
2023/08/19 09:41:33;;;;;;;13.23;11.30;;;;;;;;;;10509018;28;20032;-89
2023/08/19 09:46:34;;;;;;;12.50;9.60;;;;;;;;;;10526496;28;20063;-87
2023/08/19 09:51:36;;;;;;;12.32;10.05;;;;;;;;;;10497100;28;20044;-88
2023/08/19 09:56:37;;;;;;;9.98;8.98;;;;;;;;;;10526739;28;20491;-88
2023/08/19 10:01:38;;;;;;;9.93;7.68;;;;;;;;;;10509625;28;20161;-88
2023/08/19 10:06:41;;;;;;;10.00;9.00;;;;;;;;;;10511498;28;20160;-90
2023/08/19 10:11:43;;;;;;;9.55;8.55;;;;;;;;;;10501786;28;20074;-88
2023/08/19 10:16:46;;;;;;;11.60;9.13;;;;;;;;;;10508602;28;20074;-88
2023/08/19 10:21:48;;;;;;;10.70;8.53;;;;;;;;;;10497777;28;20560;-88
2023/08/19 10:26:50;;;;;;;10.45;7.38;;;;;;;;;;10506599;28;20046;-89
2023/08/19 10:31:51;;;;;;;9.05;7.38;;;;;;;;;;10514493;22;20128;-88
2023/08/19 10:37:11;;;;;;;10.18;9.18;;;;;;;;;;10429389;28;20027;-88
2023/08/19 10:42:14;;;;;;;9.23;8.32;;;;;;;;;;10440760;28;20525;-87
2023/08/19 10:47:18;;;;;;;10.85;9.00;;;;;;;;;;10434335;28;20040;-87
2023/08/19 10:52:20;;;;;;;10.65;8.40;;;;;;;;;;10434977;28;20032;-90
2023/08/19 10:57:22;;;;;;;9.43;8.25;;;;;;;;;;10432404;28;20032;-87
2023/08/19 11:02:23;;;;;;;9.35;8.13;;;;;;;;;;10428805;28;20427;-86
2023/08/19 11:07:25;;;;;;;9.68;8.48;;;;;;;;;;10427227;28;20582;-87
2023/08/19 11:12:26;;;;;;;9.27;8.38;;;;;;;;;;10445115;28;20094;-88
2023/08/19 11:17:34;;;;;;;8.85;7.95;;;;;;;;;;10424502;28;20017;-88
2023/08/19 11:22:45;;;;;;;8.13;7.30;;;;;;;;;;10435962;28;20055;-93
2023/08/19 11:27:46;;;;;;;8.70;7.70;;;;;;;;;;10422445;28;20037;-87
2023/08/19 11:32:47;;;;;;;11.30;9.73;;;;;;;;;;10432791;28;20047;-88
2023/08/19 11:37:48;;;;;;;9.65;8.30;;;;;;;;;;10415761;28;20124;-90
2023/08/19 11:42:50;;;;;;;9.93;8.70;;;;;;;;;;10424524;28;20037;-88
2023/08/19 11:47:51;;;;;;;10.60;9.50;;;;;;;;;;10425506;28;20546;-90
2023/08/19 11:52:52;;;;;;;9.80;8.50;;;;;;;;;;10424479;28;20032;-89
2023/08/19 11:57:53;;;;;;;10.02;8.98;;;;;;;;;;10425447;28;20037;-90
2023/08/19 12:02:55;;;;;;;9.05;8.15;;;;;;;;;;10425413;28;20409;-88
2023/08/19 12:07:56;;;;;;;9.70;8.73;;;;;;;;;;10421668;28;20037;-87
2023/08/19 12:12:58;;;;;;;9.68;8.68;;;;;;;;;;10426199;28;20029;-88
2023/08/19 12:17:59;;;;;;;10.15;8.25;;;;;;;;;;10425541;28;20037;-89
2023/08/19 12:23:02;;;;;;;11.23;8.77;;;;;;;;;;10411822;28;20049;-90
2023/08/19 12:28:03;;;;;;;9.88;8.60;;;;;;;;;;10424889;28;20377;-90
2023/08/19 12:33:05;;;;;;;9.70;8.70;;;;;;;;;;10424314;28;20063;-91
2023/08/19 12:38:06;;;;;;;9.45;8.55;;;;;;;;;;10424878;28;20094;-91
2023/08/19 12:43:07;;;;;;;8.80;7.90;;;;;;;;;;10423335;28;20033;-89
2023/08/19 12:48:09;;;;;;;9.35;8.30;;;;;;;;;;10425951;28;20064;-89
2023/08/19 12:53:11;;;;;;;9.13;8.20;;;;;;;;;;10412322;28;20064;-87
2023/08/19 12:58:12;;;;;;;11.02;8.07;;;;;;;;;;10432972;28;20071;-91
2023/08/19 13:03:13;;;;;;;8.10;7.30;;;;;;;;;;10432080;28;20028;-91
2023/08/19 13:08:14;;;;;;;9.65;8.65;;;;;;;;;;10431993;28;20025;-87
2023/08/19 13:13:15;;;;;;;8.35;7.40;;;;;;;;;;10435038;28;20032;-90
2023/08/19 13:18:18;;;;;;;8.50;7.50;;;;;;;;;;10431386;28;20104;-89
2023/08/19 13:23:20;;;;;;;10.85;7.28;;;;;;;;;;10409227;28;20040;-90
2023/08/19 13:28:21;;;;;;;8.57;7.68;;;;;;;;;;10431775;28;20029;-87
2023/08/19 13:33:22;;;;;;;8.93;7.43;;;;;;;;;;10426696;28;20083;-87
2023/08/19 13:38:23;;;;;;;8.57;7.47;;;;;;;;;;10449656;28;20041;-89
2023/08/19 13:43:24;;;;;;;11.38;7.90;;;;;;;;;;10430308;28;20051;-90
2023/08/19 13:48:26;;;;;;;8.82;7.47;;;;;;;;;;10430317;28;20152;-89
2023/08/19 13:53:27;;;;;;;10.77;8.13;;;;;;;;;;10436625;28;20104;-86
2023/08/19 13:58:28;;;;;;;9.32;7.68;;;;;;;;;;10448173;28;20039;-87
2023/08/19 14:03:29;;;;;;;9.27;8.07;;;;;;;;;;10429408;28;20139;-88
2023/08/19 14:08:33;;;;;;;10.10;8.75;;;;;;;;;;10448399;28;20553;-89
2023/08/19 14:13:34;;;;;;;10.15;8.25;;;;;;;;;;10430113;28;20036;-90
2023/08/19 14:18:35;;;;;;;8.82;7.95;;;;;;;;;;10427285;28;20032;-89
2023/08/19 14:23:38;;;;;;;9.60;8.60;;;;;;;;;;10425086;28;20029;-90
2023/08/19 14:28:39;;;;;;;8.65;7.75;;;;;;;;;;10429537;28;20484;-89
2023/08/19 14:33:42;;;;;;;9.20;8.30;;;;;;;;;;10428389;28;20150;-90
2023/08/19 14:38:45;;;;;;;12.27;8.37;;;;;;;;;;10416082;28;20040;-90
2023/08/19 14:43:46;;;;;;;9.67;8.40;;;;;;;;;;10428544;28;20041;-92
2023/08/19 14:48:48;;;;;;;9.60;8.13;;;;;;;;;;10427849;28;20036;-89
2023/08/19 14:53:49;;;;;;;10.95;9.43;;;;;;;;;;10437198;28;20046;-91
2023/08/19 14:58:50;;;;;;;9.45;8.38;;;;;;;;;;10424748;28;20135;-88
2023/08/19 15:03:51;;;;;;;15.10;9.43;;;;;;;;;;10420451;28;20043;-89
2023/08/19 15:08:52;;;;;;;10.25;8.95;;;;;;;;;;10425329;28;20071;-89
2023/08/19 15:13:53;;;;;;;10.57;8.65;;;;;;;;;;10444275;28;20498;-90
2023/08/19 15:18:54;;;;;;;9.35;7.70;;;;;;;;;;10427374;28;20035;-91
2023/08/19 15:23:55;;;;;;;9.48;8.50;;;;;;;;;;10427096;28;20045;-90
2023/08/19 15:28:57;;;;;;;9.73;7.97;;;;;;;;;;10427035;28;20400;-89
2023/08/19 15:33:59;;;;;;;10.15;8.95;;;;;;;;;;10426863;28;20053;-90
2023/08/19 15:39:00;;;;;;;9.27;8.32;;;;;;;;;;10427531;28;20416;-91
2023/08/19 15:44:01;;;;;;;11.57;8.45;;;;;;;;;;10426456;28;20785;-90
2023/08/19 15:49:02;;;;;;;9.95;8.90;;;;;;;;;;10426689;28;20763;-89
2023/08/19 15:54:03;;;;;;;10.05;8.95;;;;;;;;;;10427450;28;20108;-90
2023/08/19 15:59:05;;;;;;;9.80;8.80;;;;;;;;;;10426579;28;20040;-90
2023/08/19 16:04:06;;;;;;;9.43;8.35;;;;;;;;;;10426418;28;20045;-90
2023/08/19 16:09:07;;;;;;;10.10;8.07;;;;;;;;;;10424748;28;20044;-90
2023/08/19 16:14:08;;;;;;;10.52;8.95;;;;;;;;;;10419330;28;20064;-90
2023/08/19 16:19:09;;;;;;;10.38;9.13;;;;;;;;;;10417389;28;20029;-91
2023/08/19 16:24:10;;;;;;;567.65;506.40;;;;;;;;;;10423424;28;20484;-90
2023/08/19 16:29:11;;;;;;;55.20;42.20;;;;;;;;;;10421443;28;20040;-89
2023/08/19 16:34:12;;;;;;;18.63;16.65;;;;;;;;;;10429919;28;20040;-90
2023/08/19 16:39:13;;;;;;;78.40;67.93;;;;;;;;;;10433492;28;20717;-90
2023/08/19 16:44:14;;;;;;;165.60;147.40;;;;;;;;;;10440292;28;20032;-89
2023/08/19 16:49:15;;;;;;;40.72;36.63;;;;;;;;;;10436101;28;20045;-89
2023/08/19 16:54:17;;;;;;;16.73;14.95;;;;;;;;;;10431682;28;20110;-89
2023/08/19 16:59:18;;;;;;;14.27;12.85;;;;;;;;;;10432701;28;20040;-89
2023/08/19 17:04:19;;;;;;;241.80;207.63;;;;;;;;;;10436357;28;20041;-89
2023/08/19 17:09:20;;;;;;;74.05;63.22;;;;;;;;;;10432060;28;20036;-89
2023/08/19 17:14:21;;;;;;;25.73;21.40;;;;;;;;;;10432771;28;20522;-90
2023/08/19 17:19:22;;;;;;;31.98;27.65;;;;;;;;;;10431878;28;20035;-89
2023/08/19 17:24:23;;;;;;;14.20;12.70;;;;;;;;;;10431224;28;20044;-89
2023/08/19 17:29:24;;;;;;;13.23;11.93;;;;;;;;;;10431266;28;20663;-89
2023/08/19 17:34:25;;;;;;;12.45;9.77;;;;;;;;;;10431210;28;20524;-89
2023/08/19 17:39:26;;;;;;;11.40;10.07;;;;;;;;;;10431306;28;20032;-89
2023/08/19 17:44:34;;;;;;;12.50;10.13;;;;;;;;;;10453358;28;20083;-91
2023/08/19 17:49:40;;;;;;;12.30;10.05;;;;;;;;;;10442418;28;20031;-90
2023/08/19 17:54:44;;;;;;;9.85;8.85;;;;;;;;;;10431135;28;20067;-89
2023/08/19 17:59:45;;;;;;;9.88;8.82;;;;;;;;;;10434865;28;20032;-89
2023/08/19 18:04:46;;;;;;;10.00;8.27;;;;;;;;;;10448209;28;20072;-89
2023/08/19 18:09:47;;;;;;;15.48;10.50;;;;;;;;;;10429795;28;20033;-89
2023/08/19 18:14:48;;;;;;;12.70;11.25;;;;;;;;;;10430735;28;20111;-89
2023/08/19 18:19:49;;;;;;;14.07;10.15;;;;;;;;;;10418559;28;20029;-89
2023/08/19 18:24:50;;;;;;;12.98;10.27;;;;;;;;;;10401881;28;20498;-89
2023/08/19 18:29:51;;;;;;;12.48;10.50;;;;;;;;;;10417072;28;20512;-89
2023/08/19 18:34:53;;;;;;;15.90;11.10;;;;;;;;;;10428897;28;20159;-90
2023/08/19 18:39:54;;;;;;;11.45;10.25;;;;;;;;;;10429018;28;20175;-89
2023/08/19 18:44:55;;;;;;;14.15;11.18;;;;;;;;;;10429273;28;20478;-89
2023/08/19 18:49:56;;;;;;;15.38;11.75;;;;;;;;;;10423609;28;20031;-89
2023/08/19 18:54:57;;;;;;;14.35;11.25;;;;;;;;;;10415107;28;20075;-88
2023/08/19 18:59:58;;;;;;;14.80;11.27;;;;;;;;;;10427508;28;20033;-90
2023/08/19 19:05:02;;;;;;;14.52;12.30;;;;;;;;;;10427926;28;20139;-89
2023/08/19 19:10:03;;;;;;;13.30;11.37;;;;;;;;;;10427614;28;20123;-90
2023/08/19 19:15:05;;;;;;;16.55;12.07;;;;;;;;;;10426903;28;20664;-89
2023/08/19 19:20:06;;;;;;;11.63;10.25;;;;;;;;;;10429786;28;20040;-88
2023/08/19 19:25:07;;;;;;;13.75;11.10;;;;;;;;;;10429666;28;20040;-88
2023/08/19 19:30:09;;;;;;;14.07;11.55;;;;;;;;;;10427267;28;20044;-87
2023/08/19 19:35:11;;;;;;;14.88;11.88;;;;;;;;;;10445002;28;20493;-89
2023/08/19 19:40:13;;;;;;;15.13;11.68;;;;;;;;;;10428576;28;20104;-88
2023/08/19 19:45:14;;;;;;;14.43;11.70;;;;;;;;;;10427387;28;20102;-88
2023/08/19 19:50:15;;;;;;;14.10;12.20;;;;;;;;;;10425805;28;20091;-87
2023/08/19 19:55:16;;;;;;;16.73;13.18;;;;;;;;;;10444405;28;20037;-89
2023/08/19 20:00:17;;;;;;;15.15;12.02;;;;;;;;;;10415976;28;20055;-88
2023/08/19 20:05:18;;;;;;;12.65;10.27;;;;;;;;;;10425143;28;20068;-88
2023/08/19 20:10:19;;;;;;;17.75;12.02;;;;;;;;;;10425283;28;20033;-88
2023/08/19 20:15:20;;;;;;;15.77;11.60;;;;;;;;;;10432421;28;20032;-89
2023/08/19 20:20:21;;;;;;;17.77;13.10;;;;;;;;;;10425976;28;20037;-88
2023/08/19 20:25:23;;;;;;;17.10;12.57;;;;;;;;;;10425152;28;20163;-88
2023/08/19 20:30:24;;;;;;;13.75;11.68;;;;;;;;;;10424718;28;20598;-88
2023/08/19 20:35:25;;;;;;;16.92;13.38;;;;;;;;;;10424917;28;20049;-88
2023/08/19 20:40:26;;;;;;;15.30;12.77;;;;;;;;;;10443502;28;20753;-88
2023/08/19 20:45:27;;;;;;;15.57;11.90;;;;;;;;;;10424490;28;20048;-89
2023/08/19 20:50:28;;;;;;;16.90;12.93;;;;;;;;;;10443656;28;20025;-90
2023/08/19 20:55:29;;;;;;;15.30;12.77;;;;;;;;;;10433683;28;20030;-91
2023/08/19 21:00:30;;;;;;;17.05;12.52;;;;;;;;;;10422802;28;20496;-90
2023/08/19 21:05:31;;;;;;;18.13;13.25;;;;;;;;;;10423660;28;20551;-87
2023/08/19 21:10:32;;;;;;;15.40;12.57;;;;;;;;;;10416525;28;20147;-90
2023/08/19 21:15:33;;;;;;;17.85;13.32;;;;;;;;;;10423598;28;20601;-92
2023/08/19 21:26:55;;;;;;;17.25;13.68;;;;;;;;;;10423894;28;20164;-92
2023/08/19 21:43:17;;;;;;;19.65;15.30;;;;;;;;;;10380335;28;20038;-94
2023/08/19 21:48:20;;;;;;;18.45;14.13;;;;;;;;;;10362209;28;20052;-92
2023/08/19 21:53:21;;;;;;;17.50;14.50;;;;;;;;;;10368644;28;20032;-92
2023/08/19 21:58:25;;;;;;;20.05;16.38;;;;;;;;;;10430370;28;20554;-93
2023/08/19 22:03:26;;;;;;;18.95;15.70;;;;;;;;;;10431167;28;20572;-93
2023/08/19 22:08:28;;;;;;;24.67;16.60;;;;;;;;;;10430839;28;20412;-92
2023/08/19 22:13:31;;;;;;;22.35;16.00;;;;;;;;;;10431250;28;20029;-93
2023/08/19 22:18:32;;;;;;;19.40;14.40;;;;;;;;;;10431091;28;20033;-92
2023/08/19 22:23:33;;;;;;;22.35;16.40;;;;;;;;;;10430345;28;20025;-93
2023/08/19 22:28:34;;;;;;;22.05;17.25;;;;;;;;;;10429717;28;20040;-92
2023/08/19 22:33:36;;;;;;;21.77;15.43;;;;;;;;;;10432102;28;20049;-92
2023/08/19 22:38:38;;;;;;;18.05;14.70;;;;;;;;;;10432180;28;20370;-93
2023/08/19 22:43:39;;;;;;;20.55;15.85;;;;;;;;;;10431458;28;20447;-91
2023/08/19 22:54:27;;;;;;;20.23;17.15;;;;;;;;;;10447613;28;20121;-93
2023/08/19 22:59:28;;;;;;;21.88;17.58;;;;;;;;;;10428869;28;20124;-91
2023/08/19 23:04:29;;;;;;;20.75;16.02;;;;;;;;;;10429894;28;20033;-94
2023/08/19 23:09:33;;;;;;;22.08;17.35;;;;;;;;;;10429558;28;20599;-94
2023/08/19 23:14:44;;;;;;;24.13;18.02;;;;;;;;;;10429710;28;20666;-91
2023/08/19 23:25:38;;;;;;;23.83;18.67;;;;;;;;;;10429285;28;20560;-91
2023/08/19 23:30:42;;;;;;;23.02;18.55;;;;;;;;;;10437021;28;20120;-92
2023/08/19 23:35:52;;;;;;;26.42;20.15;;;;;;;;;;10393878;28;20049;-93
2023/08/19 23:40:53;;;;;;;23.25;18.90;;;;;;;;;;10389359;28;20026;-91
2023/08/19 23:45:54;;;;;;;22.83;19.10;;;;;;;;;;10385386;28;20056;-92
2023/08/19 23:50:58;;;;;;;22.50;18.08;;;;;;;;;;10390249;28;20033;-94
2023/08/19 23:56:03;;;;;;;25.27;20.17;;;;;;;;;;10390804;28;20033;-93
